createdAt,value
2022-12-18T00:07:19.207Z,-8
2022-12-18T00:17:19.846Z,-8.1
2022-12-18T00:27:20.401Z,-8
2022-12-18T00:37:21.189Z,-8.1
2022-12-18T00:47:22.191Z,-8.1
2022-12-18T01:07:22.820Z,-8.3
2022-12-18T01:37:25.879Z,-8.4
2022-12-18T01:47:26.451Z,-8.4
2022-12-18T01:57:27.158Z,-8.5
2022-12-18T02:17:28.426Z,-8.5
2022-12-18T02:27:28.737Z,-8.5
2022-12-18T02:57:30.450Z,-8.3
2022-12-18T03:07:31.118Z,-8.4
2022-12-18T03:17:31.547Z,-8.6
2022-12-18T03:27:32.137Z,-8.5
2022-12-18T03:47:33.103Z,-8.4
2022-12-18T04:07:34.661Z,-8.7
2022-12-18T04:17:35.047Z,-8.9
2022-12-18T04:27:35.175Z,-9
2022-12-18T04:47:36.197Z,-8.8
2022-12-18T05:57:40.335Z,-8.8
2022-12-18T06:27:42.041Z,-9.1
2022-12-18T06:37:42.329Z,-9.1
2022-12-18T07:47:48.345Z,-9
2022-12-18T07:57:51.943Z,-8.9
2022-12-18T08:27:50.787Z,-8.6
2022-12-18T08:37:51.889Z,-8.5
2022-12-18T08:47:52.232Z,-8.2
2022-12-18T08:57:53.275Z,-7.9
2022-12-18T09:07:54.318Z,-7.7
2022-12-18T09:17:54.577Z,-7.4
2022-12-18T09:27:54.817Z,-7.1
2022-12-18T09:37:55.513Z,-7
2022-12-18T09:47:56.560Z,-6.7
2022-12-18T10:07:58.313Z,-6.1
2022-12-18T10:27:59.065Z,-5.2
2022-12-18T10:37:59.513Z,-4.9
2022-12-18T10:48:00.454Z,-4.6
2022-12-18T10:58:00.854Z,-4.4
2022-12-18T11:18:01.344Z,-3.7
2022-12-18T11:38:02.131Z,-3.2
2022-12-18T11:58:03.059Z,-2.8
2022-12-18T12:18:08.271Z,-2.3
2022-12-18T12:28:04.775Z,-2.1
2022-12-18T12:48:05.627Z,-1.8
2022-12-18T12:58:06.394Z,-1.7
2022-12-18T13:08:07.100Z,-1.6
2022-12-18T13:18:07.949Z,-1.5
2022-12-18T13:28:08.669Z,-1.4
2022-12-18T13:38:08.977Z,-1.3
2022-12-18T13:48:09.338Z,-1.3
2022-12-18T13:58:10.256Z,-1.4
2022-12-18T14:18:11.826Z,-1.4
2022-12-18T14:38:13.611Z,-1.4
2022-12-18T14:48:14.253Z,-1.4
2022-12-18T15:08:14.893Z,-1.4
2022-12-18T15:28:16.274Z,-1.5
2022-12-18T15:38:17.313Z,-1.5
2022-12-18T15:58:19.238Z,-1.4
2022-12-18T16:08:20.287Z,-1.3
2022-12-18T16:18:20.848Z,-1.2
2022-12-18T16:28:21.217Z,-1.1
2022-12-18T16:38:21.836Z,-1.1
2022-12-18T16:48:22.511Z,-1.2
2022-12-18T16:58:23.336Z,-1.2
2022-12-18T17:08:23.990Z,-1.2
2022-12-18T17:18:24.217Z,-1.3
2022-12-18T17:28:25.182Z,-1.2
2022-12-18T17:38:25.704Z,-1.1
2022-12-18T17:48:25.937Z,-1.2
2022-12-18T17:58:26.438Z,-1.2
2022-12-18T18:08:26.747Z,-1.2
2022-12-18T18:18:27.359Z,-1.2
2022-12-18T18:38:28.204Z,-1.1
2022-12-18T18:48:30.219Z,-0.9
2022-12-18T18:58:29.588Z,-0.8
2022-12-18T19:08:30.256Z,-0.5
2022-12-18T19:18:30.338Z,-0.3
2022-12-18T19:28:31.279Z,0.1
2022-12-18T19:38:31.583Z,0.3
2022-12-18T19:58:33.378Z,0.4
2022-12-18T20:08:34.368Z,0.5
2022-12-18T20:18:34.576Z,0.7
2022-12-18T20:28:34.815Z,0.6
2022-12-18T20:38:35.197Z,0.7
2022-12-18T20:48:36.063Z,0.7
2022-12-18T20:58:36.311Z,0.8
2022-12-18T21:08:37.308Z,0.8
2022-12-18T21:18:37.358Z,0.8
2022-12-18T21:28:38.066Z,0.8
2022-12-18T21:38:39.058Z,0.7
2022-12-18T21:48:39.585Z,0.6
2022-12-18T21:58:40.172Z,0.4
2022-12-18T22:08:42.601Z,0.3
2022-12-18T22:18:41.461Z,0.2
2022-12-18T22:28:41.554Z,0.3
2022-12-18T22:38:42.101Z,0.3
2022-12-18T22:48:42.781Z,0.3
2022-12-18T22:58:43.379Z,0.3
2022-12-18T23:08:44.323Z,0.5
2022-12-18T23:18:45.172Z,0.6
2022-12-18T23:28:46.020Z,0.6
2022-12-18T23:58:47.080Z,0.6
